sensor_id;sensor_type;location;lat;lon;timestamp;P1;durP1;ratioP1;P2;durP2;ratioP2
35675;SDS011;21790;42.668;23.298;2023-02-28T00:01:21;26.85;;;14.95;;
35675;SDS011;21790;42.668;23.298;2023-02-28T00:03:47;27.27;;;14.65;;
35675;SDS011;21790;42.668;23.298;2023-02-28T00:06:13;23.15;;;13.93;;
35675;SDS011;21790;42.668;23.298;2023-02-28T00:08:38;24.00;;;13.45;;
35675;SDS011;21790;42.668;23.298;2023-02-28T00:11:05;27.40;;;13.32;;
35675;SDS011;21790;42.668;23.298;2023-02-28T00:13:33;23.85;;;12.82;;
35675;SDS011;21790;42.668;23.298;2023-02-28T00:16:07;24.65;;;12.85;;
35675;SDS011;21790;42.668;23.298;2023-02-28T00:18:34;23.02;;;13.50;;
35675;SDS011;21790;42.668;23.298;2023-02-28T00:20:59;21.67;;;12.55;;
35675;SDS011;21790;42.668;23.298;2023-02-28T00:23:25;26.00;;;11.70;;
35675;SDS011;21790;42.668;23.298;2023-02-28T00:25:51;20.20;;;10.63;;
35675;SDS011;21790;42.668;23.298;2023-02-28T00:28:17;20.55;;;10.73;;
35675;SDS011;21790;42.668;23.298;2023-02-28T00:30:43;18.98;;;11.02;;
35675;SDS011;21790;42.668;23.298;2023-02-28T00:33:08;22.30;;;10.95;;
35675;SDS011;21790;42.668;23.298;2023-02-28T00:35:34;18.83;;;11.25;;
35675;SDS011;21790;42.668;23.298;2023-02-28T00:38:00;19.50;;;10.75;;
35675;SDS011;21790;42.668;23.298;2023-02-28T00:40:32;17.60;;;10.70;;
35675;SDS011;21790;42.668;23.298;2023-02-28T00:42:57;18.60;;;10.10;;
35675;SDS011;21790;42.668;23.298;2023-02-28T00:45:23;21.08;;;11.93;;
35675;SDS011;21790;42.668;23.298;2023-02-28T00:47:49;20.88;;;10.85;;
35675;SDS011;21790;42.668;23.298;2023-02-28T00:50:18;19.42;;;10.90;;
35675;SDS011;21790;42.668;23.298;2023-02-28T00:52:46;22.90;;;12.52;;
35675;SDS011;21790;42.668;23.298;2023-02-28T00:55:12;21.38;;;12.18;;
35675;SDS011;21790;42.668;23.298;2023-02-28T00:57:38;24.52;;;13.07;;
35675;SDS011;21790;42.668;23.298;2023-02-28T01:00:06;25.80;;;12.88;;
35675;SDS011;21790;42.668;23.298;2023-02-28T01:02:33;23.33;;;13.63;;
35675;SDS011;21790;42.668;23.298;2023-02-28T01:05:00;33.28;;;17.92;;
35675;SDS011;21790;42.668;23.298;2023-02-28T01:07:26;33.88;;;17.10;;
35675;SDS011;21790;42.668;23.298;2023-02-28T01:09:52;33.25;;;16.65;;
35675;SDS011;21790;42.668;23.298;2023-02-28T01:12:17;26.52;;;13.13;;
35675;SDS011;21790;42.668;23.298;2023-02-28T01:14:43;24.73;;;12.50;;
35675;SDS011;21790;42.668;23.298;2023-02-28T01:17:09;22.83;;;13.43;;
35675;SDS011;21790;42.668;23.298;2023-02-28T01:19:34;23.58;;;13.80;;
35675;SDS011;21790;42.668;23.298;2023-02-28T01:22:01;29.67;;;16.23;;
35675;SDS011;21790;42.668;23.298;2023-02-28T01:24:31;30.50;;;15.20;;
35675;SDS011;21790;42.668;23.298;2023-02-28T01:26:57;27.00;;;14.57;;
35675;SDS011;21790;42.668;23.298;2023-02-28T01:29:22;32.80;;;17.85;;
35675;SDS011;21790;42.668;23.298;2023-02-28T01:31:48;37.38;;;20.55;;
35675;SDS011;21790;42.668;23.298;2023-02-28T01:34:14;43.95;;;21.35;;
35675;SDS011;21790;42.668;23.298;2023-02-28T01:36:40;39.72;;;21.13;;
35675;SDS011;21790;42.668;23.298;2023-02-28T01:39:05;39.17;;;22.02;;
35675;SDS011;21790;42.668;23.298;2023-02-28T01:41:31;38.58;;;20.52;;
35675;SDS011;21790;42.668;23.298;2023-02-28T01:46:34;37.92;;;20.75;;
35675;SDS011;21790;42.668;23.298;2023-02-28T01:49:18;41.85;;;22.08;;
35675;SDS011;21790;42.668;23.298;2023-02-28T01:51:51;43.00;;;22.13;;
35675;SDS011;21790;42.668;23.298;2023-02-28T01:54:27;41.92;;;21.48;;
35675;SDS011;21790;42.668;23.298;2023-02-28T01:56:57;36.70;;;20.35;;
35675;SDS011;21790;42.668;23.298;2023-02-28T01:59:29;40.17;;;22.80;;
35675;SDS011;21790;42.668;23.298;2023-02-28T02:04:26;44.38;;;22.48;;
35675;SDS011;21790;42.668;23.298;2023-02-28T02:06:55;43.83;;;21.50;;
35675;SDS011;21790;42.668;23.298;2023-02-28T02:09:23;44.28;;;22.45;;
35675;SDS011;21790;42.668;23.298;2023-02-28T02:11:48;41.47;;;21.95;;
35675;SDS011;21790;42.668;23.298;2023-02-28T02:15:16;44.97;;;22.50;;
35675;SDS011;21790;42.668;23.298;2023-02-28T02:17:24;77.75;;;38.50;;
35675;SDS011;21790;42.668;23.298;2023-02-28T02:25:26;48.25;;;24.83;;
35675;SDS011;21790;42.668;23.298;2023-02-28T02:36:27;52.20;;;26.42;;
35675;SDS011;21790;42.668;23.298;2023-02-28T02:41:49;55.30;;;25.90;;
35675;SDS011;21790;42.668;23.298;2023-02-28T02:44:21;61.58;;;31.30;;
35675;SDS011;21790;42.668;23.298;2023-02-28T02:46:53;64.75;;;29.83;;
35675;SDS011;21790;42.668;23.298;2023-02-28T02:49:24;62.28;;;28.58;;
35675;SDS011;21790;42.668;23.298;2023-02-28T02:51:56;57.85;;;29.63;;
35675;SDS011;21790;42.668;23.298;2023-02-28T02:54:36;62.30;;;30.05;;
35675;SDS011;21790;42.668;23.298;2023-02-28T02:57:29;54.42;;;27.00;;
35675;SDS011;21790;42.668;23.298;2023-02-28T02:59:57;56.05;;;25.75;;
35675;SDS011;21790;42.668;23.298;2023-02-28T03:02:24;57.47;;;26.90;;
35675;SDS011;21790;42.668;23.298;2023-02-28T03:04:53;59.15;;;26.00;;
35675;SDS011;21790;42.668;23.298;2023-02-28T03:07:25;61.95;;;26.95;;
35675;SDS011;21790;42.668;23.298;2023-02-28T03:09:52;47.80;;;24.05;;
35675;SDS011;21790;42.668;23.298;2023-02-28T03:12:19;48.88;;;23.00;;
35675;SDS011;21790;42.668;23.298;2023-02-28T03:17:55;57.88;;;26.10;;
35675;SDS011;21790;42.668;23.298;2023-02-28T03:20:45;55.00;;;25.50;;
35675;SDS011;21790;42.668;23.298;2023-02-28T03:23:21;53.33;;;24.88;;
35675;SDS011;21790;42.668;23.298;2023-02-28T03:26:00;57.90;;;27.33;;
35675;SDS011;21790;42.668;23.298;2023-02-28T03:28:41;64.85;;;27.75;;
35675;SDS011;21790;42.668;23.298;2023-02-28T03:31:21;64.65;;;27.90;;
35675;SDS011;21790;42.668;23.298;2023-02-28T03:33:59;62.22;;;27.52;;
35675;SDS011;21790;42.668;23.298;2023-02-28T03:36:32;66.28;;;30.23;;
35675;SDS011;21790;42.668;23.298;2023-02-28T03:39:08;63.65;;;27.70;;
35675;SDS011;21790;42.668;23.298;2023-02-28T03:41:45;65.60;;;29.17;;
35675;SDS011;21790;42.668;23.298;2023-02-28T03:44:18;61.03;;;27.48;;
35675;SDS011;21790;42.668;23.298;2023-02-28T03:47:13;69.28;;;29.40;;
35675;SDS011;21790;42.668;23.298;2023-02-28T03:50:03;61.13;;;27.40;;
35675;SDS011;21790;42.668;23.298;2023-02-28T03:52:31;60.72;;;27.90;;
35675;SDS011;21790;42.668;23.298;2023-02-28T03:55:02;63.72;;;28.17;;
35675;SDS011;21790;42.668;23.298;2023-02-28T04:00:33;49.05;;;23.60;;
35675;SDS011;21790;42.668;23.298;2023-02-28T04:03:03;46.65;;;23.17;;
35675;SDS011;21790;42.668;23.298;2023-02-28T04:05:29;55.92;;;25.80;;
35675;SDS011;21790;42.668;23.298;2023-02-28T04:08:03;59.58;;;25.88;;
35675;SDS011;21790;42.668;23.298;2023-02-28T04:13:01;47.85;;;23.02;;
35675;SDS011;21790;42.668;23.298;2023-02-28T04:15:26;46.42;;;23.08;;
35675;SDS011;21790;42.668;23.298;2023-02-28T04:17:52;48.47;;;23.95;;
35675;SDS011;21790;42.668;23.298;2023-02-28T04:20:18;46.80;;;23.42;;
35675;SDS011;21790;42.668;23.298;2023-02-28T04:22:45;47.90;;;23.92;;
35675;SDS011;21790;42.668;23.298;2023-02-28T04:25:11;46.90;;;23.20;;
35675;SDS011;21790;42.668;23.298;2023-02-28T04:27:36;44.20;;;20.55;;
35675;SDS011;21790;42.668;23.298;2023-02-28T04:30:02;47.17;;;22.92;;
35675;SDS011;21790;42.668;23.298;2023-02-28T04:32:30;47.17;;;24.13;;
35675;SDS011;21790;42.668;23.298;2023-02-28T04:34:56;53.15;;;23.90;;
35675;SDS011;21790;42.668;23.298;2023-02-28T04:37:22;53.97;;;25.30;;
35675;SDS011;21790;42.668;23.298;2023-02-28T04:39:52;53.13;;;23.70;;
35675;SDS011;21790;42.668;23.298;2023-02-28T04:42:18;42.72;;;22.20;;
35675;SDS011;21790;42.668;23.298;2023-02-28T04:44:44;48.20;;;22.77;;
35675;SDS011;21790;42.668;23.298;2023-02-28T04:47:10;45.47;;;21.25;;
35675;SDS011;21790;42.668;23.298;2023-02-28T04:49:36;49.60;;;22.63;;
35675;SDS011;21790;42.668;23.298;2023-02-28T04:52:18;46.20;;;22.23;;
35675;SDS011;21790;42.668;23.298;2023-02-28T04:54:44;37.80;;;19.73;;
35675;SDS011;21790;42.668;23.298;2023-02-28T04:57:10;38.42;;;19.20;;
35675;SDS011;21790;42.668;23.298;2023-02-28T04:59:35;39.75;;;19.73;;
35675;SDS011;21790;42.668;23.298;2023-02-28T05:02:01;43.47;;;20.10;;
35675;SDS011;21790;42.668;23.298;2023-02-28T05:04:31;41.13;;;20.35;;
35675;SDS011;21790;42.668;23.298;2023-02-28T05:07:01;41.47;;;20.98;;
35675;SDS011;21790;42.668;23.298;2023-02-28T05:09:28;41.75;;;20.80;;
35675;SDS011;21790;42.668;23.298;2023-02-28T05:11:54;45.35;;;20.30;;
35675;SDS011;21790;42.668;23.298;2023-02-28T05:14:19;42.35;;;20.58;;
35675;SDS011;21790;42.668;23.298;2023-02-28T05:16:45;37.88;;;19.40;;
35675;SDS011;21790;42.668;23.298;2023-02-28T05:19:11;45.05;;;20.95;;
35675;SDS011;21790;42.668;23.298;2023-02-28T05:21:41;41.55;;;21.73;;
35675;SDS011;21790;42.668;23.298;2023-02-28T05:24:15;44.80;;;20.88;;
35675;SDS011;21790;42.668;23.298;2023-02-28T05:26:46;38.50;;;18.97;;
35675;SDS011;21790;42.668;23.298;2023-02-28T05:29:11;40.58;;;20.33;;
35675;SDS011;21790;42.668;23.298;2023-02-28T05:31:39;39.33;;;20.23;;
35675;SDS011;21790;42.668;23.298;2023-02-28T05:34:06;43.08;;;20.33;;
35675;SDS011;21790;42.668;23.298;2023-02-28T05:36:32;40.15;;;19.63;;
35675;SDS011;21790;42.668;23.298;2023-02-28T05:39:07;38.22;;;18.45;;
35675;SDS011;21790;42.668;23.298;2023-02-28T05:41:38;39.88;;;18.33;;
35675;SDS011;21790;42.668;23.298;2023-02-28T05:46:40;34.53;;;17.13;;
35675;SDS011;21790;42.668;23.298;2023-02-28T05:49:05;40.58;;;18.27;;
35675;SDS011;21790;42.668;23.298;2023-02-28T05:51:31;38.47;;;19.70;;
35675;SDS011;21790;42.668;23.298;2023-02-28T05:54:00;42.80;;;19.95;;
35675;SDS011;21790;42.668;23.298;2023-02-28T05:56:29;40.38;;;17.70;;
35675;SDS011;21790;42.668;23.298;2023-02-28T05:58:55;35.45;;;18.77;;
35675;SDS011;21790;42.668;23.298;2023-02-28T06:07:31;42.83;;;18.50;;
35675;SDS011;21790;42.668;23.298;2023-02-28T06:13:32;43.30;;;21.17;;
35675;SDS011;21790;42.668;23.298;2023-02-28T06:22:43;46.95;;;21.80;;
35675;SDS011;21790;42.668;23.298;2023-02-28T06:31:41;50.67;;;21.65;;
35675;SDS011;21790;42.668;23.298;2023-02-28T06:37:31;43.33;;;20.20;;
35675;SDS011;21790;42.668;23.298;2023-02-28T06:39:59;56.30;;;22.95;;
35675;SDS011;21790;42.668;23.298;2023-02-28T06:42:25;52.88;;;24.17;;
35675;SDS011;21790;42.668;23.298;2023-02-28T06:44:54;50.38;;;23.73;;
35675;SDS011;21790;42.668;23.298;2023-02-28T06:47:41;52.10;;;25.15;;
35675;SDS011;21790;42.668;23.298;2023-02-28T06:50:14;51.38;;;24.55;;
35675;SDS011;21790;42.668;23.298;2023-02-28T06:52:58;50.88;;;24.25;;
35675;SDS011;21790;42.668;23.298;2023-02-28T06:55:26;50.95;;;25.20;;
35675;SDS011;21790;42.668;23.298;2023-02-28T06:57:53;50.15;;;24.48;;
35675;SDS011;21790;42.668;23.298;2023-02-28T07:23:06;77.10;;;37.08;;
35675;SDS011;21790;42.668;23.298;2023-02-28T07:35:14;62.85;;;27.17;;
35675;SDS011;21790;42.668;23.298;2023-02-28T07:37:40;62.58;;;29.80;;
35675;SDS011;21790;42.668;23.298;2023-02-28T07:40:09;61.95;;;27.83;;
35675;SDS011;21790;42.668;23.298;2023-02-28T07:42:40;57.67;;;27.70;;
35675;SDS011;21790;42.668;23.298;2023-02-28T07:45:07;55.05;;;27.67;;
35675;SDS011;21790;42.668;23.298;2023-02-28T07:47:36;59.17;;;25.75;;
35675;SDS011;21790;42.668;23.298;2023-02-28T07:50:03;56.45;;;27.13;;
35675;SDS011;21790;42.668;23.298;2023-02-28T07:52:28;56.25;;;26.85;;
35675;SDS011;21790;42.668;23.298;2023-02-28T07:54:54;55.25;;;27.15;;
35675;SDS011;21790;42.668;23.298;2023-02-28T07:57:19;62.80;;;27.85;;
35675;SDS011;21790;42.668;23.298;2023-02-28T07:59:45;59.13;;;28.02;;
35675;SDS011;21790;42.668;23.298;2023-02-28T08:02:13;62.72;;;29.27;;
35675;SDS011;21790;42.668;23.298;2023-02-28T08:04:40;67.43;;;31.08;;
35675;SDS011;21790;42.668;23.298;2023-02-28T08:07:05;67.97;;;31.50;;
35675;SDS011;21790;42.668;23.298;2023-02-28T08:09:31;71.60;;;32.47;;
35675;SDS011;21790;42.668;23.298;2023-02-28T08:11:56;64.40;;;29.85;;
35675;SDS011;21790;42.668;23.298;2023-02-28T08:14:22;70.85;;;32.60;;
35675;SDS011;21790;42.668;23.298;2023-02-28T08:16:47;67.80;;;32.72;;
35675;SDS011;21790;42.668;23.298;2023-02-28T08:19:13;64.72;;;30.67;;
35675;SDS011;21790;42.668;23.298;2023-02-28T08:21:39;58.17;;;28.42;;
35675;SDS011;21790;42.668;23.298;2023-02-28T08:24:05;66.05;;;30.40;;
35675;SDS011;21790;42.668;23.298;2023-02-28T08:26:31;62.13;;;30.73;;
35675;SDS011;21790;42.668;23.298;2023-02-28T08:28:56;62.95;;;29.95;;
35675;SDS011;21790;42.668;23.298;2023-02-28T08:31:22;64.40;;;31.90;;
35675;SDS011;21790;42.668;23.298;2023-02-28T08:33:48;81.72;;;34.88;;
35675;SDS011;21790;42.668;23.298;2023-02-28T08:36:16;71.88;;;36.45;;
35675;SDS011;21790;42.668;23.298;2023-02-28T08:38:41;79.05;;;36.70;;
35675;SDS011;21790;42.668;23.298;2023-02-28T08:41:10;75.72;;;35.65;;
35675;SDS011;21790;42.668;23.298;2023-02-28T08:43:39;81.65;;;37.22;;
35675;SDS011;21790;42.668;23.298;2023-02-28T08:49:00;73.45;;;34.45;;
35675;SDS011;21790;42.668;23.298;2023-02-28T08:51:27;75.25;;;35.38;;
35675;SDS011;21790;42.668;23.298;2023-02-28T08:54:04;81.82;;;36.20;;
35675;SDS011;21790;42.668;23.298;2023-02-28T08:56:31;80.35;;;34.20;;
35675;SDS011;21790;42.668;23.298;2023-02-28T08:58:58;74.22;;;34.28;;
35675;SDS011;21790;42.668;23.298;2023-02-28T09:01:24;78.13;;;36.28;;
35675;SDS011;21790;42.668;23.298;2023-02-28T09:03:52;84.53;;;36.53;;
35675;SDS011;21790;42.668;23.298;2023-02-28T09:13:47;77.93;;;35.53;;
35675;SDS011;21790;42.668;23.298;2023-02-28T09:19:35;80.90;;;35.38;;
35675;SDS011;21790;42.668;23.298;2023-02-28T09:22:08;78.93;;;37.05;;
35675;SDS011;21790;42.668;23.298;2023-02-28T09:24:35;83.55;;;37.67;;
35675;SDS011;21790;42.668;23.298;2023-02-28T09:33:16;77.57;;;34.83;;
35675;SDS011;21790;42.668;23.298;2023-02-28T09:35:44;76.63;;;35.42;;
35675;SDS011;21790;42.668;23.298;2023-02-28T09:41:37;79.28;;;33.88;;
35675;SDS011;21790;42.668;23.298;2023-02-28T09:44:30;83.45;;;35.25;;
35675;SDS011;21790;42.668;23.298;2023-02-28T09:50:01;89.57;;;35.20;;
35675;SDS011;21790;42.668;23.298;2023-02-28T09:58:18;70.72;;;32.63;;
35675;SDS011;21790;42.668;23.298;2023-02-28T10:00:52;75.00;;;32.13;;
35675;SDS011;21790;42.668;23.298;2023-02-28T10:06:42;81.97;;;35.45;;
35675;SDS011;21790;42.668;23.298;2023-02-28T10:12:04;85.72;;;39.90;;
35675;SDS011;21790;42.668;23.298;2023-02-28T10:14:32;80.57;;;37.28;;
35675;SDS011;21790;42.668;23.298;2023-02-28T10:25:19;92.38;;;43.08;;
35675;SDS011;21790;42.668;23.298;2023-02-28T10:30:50;35.05;;;16.35;;
35675;SDS011;21790;42.668;23.298;2023-02-28T10:33:33;34.38;;;16.42;;
35675;SDS011;21790;42.668;23.298;2023-02-28T10:38:53;33.42;;;14.23;;
35675;SDS011;21790;42.668;23.298;2023-02-28T10:41:29;31.17;;;13.73;;
35675;SDS011;21790;42.668;23.298;2023-02-28T10:44:16;41.85;;;14.75;;
35675;SDS011;21790;42.668;23.298;2023-02-28T10:46:46;30.42;;;13.75;;
35675;SDS011;21790;42.668;23.298;2023-02-28T10:49:25;52.95;;;17.50;;
35675;SDS011;21790;42.668;23.298;2023-02-28T10:55:24;30.67;;;13.85;;
35675;SDS011;21790;42.668;23.298;2023-02-28T10:57:51;31.20;;;13.35;;
35675;SDS011;21790;42.668;23.298;2023-02-28T11:00:31;29.92;;;13.13;;
35675;SDS011;21790;42.668;23.298;2023-02-28T11:03:00;29.38;;;12.40;;
35675;SDS011;21790;42.668;23.298;2023-02-28T11:05:31;25.00;;;12.18;;
35675;SDS011;21790;42.668;23.298;2023-02-28T11:08:03;34.47;;;13.38;;
35675;SDS011;21790;42.668;23.298;2023-02-28T11:10:38;28.80;;;12.85;;
35675;SDS011;21790;42.668;23.298;2023-02-28T11:13:04;33.42;;;13.27;;
35675;SDS011;21790;42.668;23.298;2023-02-28T11:15:31;26.85;;;12.50;;
35675;SDS011;21790;42.668;23.298;2023-02-28T11:29:42;34.97;;;13.95;;
35675;SDS011;21790;42.668;23.298;2023-02-28T11:32:19;38.88;;;14.57;;
35675;SDS011;21790;42.668;23.298;2023-02-28T11:37:41;33.47;;;15.60;;
35675;SDS011;21790;42.668;23.298;2023-02-28T11:40:13;38.15;;;14.52;;
35675;SDS011;21790;42.668;23.298;2023-02-28T11:45:49;30.17;;;13.85;;
35675;SDS011;21790;42.668;23.298;2023-02-28T11:51:47;30.83;;;14.40;;
35675;SDS011;21790;42.668;23.298;2023-02-28T11:57:00;34.10;;;14.95;;
35675;SDS011;21790;42.668;23.298;2023-02-28T11:59:59;38.03;;;14.68;;
35675;SDS011;21790;42.668;23.298;2023-02-28T12:02:37;33.78;;;15.27;;
35675;SDS011;21790;42.668;23.298;2023-02-28T12:05:29;47.58;;;17.63;;
35675;SDS011;21790;42.668;23.298;2023-02-28T12:10:36;29.10;;;14.50;;
35675;SDS011;21790;42.668;23.298;2023-02-28T12:13:20;43.05;;;16.50;;
35675;SDS011;21790;42.668;23.298;2023-02-28T12:24:36;31.00;;;14.18;;
35675;SDS011;21790;42.668;23.298;2023-02-28T12:27:16;43.92;;;15.93;;
35675;SDS011;21790;42.668;23.298;2023-02-28T12:32:30;34.90;;;15.93;;
35675;SDS011;21790;42.668;23.298;2023-02-28T12:37:41;36.20;;;15.07;;
35675;SDS011;21790;42.668;23.298;2023-02-28T12:40:18;31.67;;;13.02;;
35675;SDS011;21790;42.668;23.298;2023-02-28T12:42:47;34.95;;;14.90;;
35675;SDS011;21790;42.668;23.298;2023-02-28T12:45:21;35.15;;;14.50;;
35675;SDS011;21790;42.668;23.298;2023-02-28T12:50:27;31.23;;;14.15;;
35675;SDS011;21790;42.668;23.298;2023-02-28T12:55:42;31.88;;;14.80;;
35675;SDS011;21790;42.668;23.298;2023-02-28T12:58:15;37.10;;;14.38;;
35675;SDS011;21790;42.668;23.298;2023-02-28T13:12:58;34.45;;;15.23;;
35675;SDS011;21790;42.668;23.298;2023-02-28T13:15:28;40.05;;;14.32;;
35675;SDS011;21790;42.668;23.298;2023-02-28T13:18:00;42.70;;;15.73;;
35675;SDS011;21790;42.668;23.298;2023-02-28T13:20:28;33.47;;;14.73;;
35675;SDS011;21790;42.668;23.298;2023-02-28T13:25:53;30.67;;;14.18;;
35675;SDS011;21790;42.668;23.298;2023-02-28T13:28:56;35.90;;;15.18;;
35675;SDS011;21790;42.668;23.298;2023-02-28T13:31:18;37.03;;;15.05;;
35675;SDS011;21790;42.668;23.298;2023-02-28T13:57:27;31.48;;;10.90;;
35675;SDS011;21790;42.668;23.298;2023-02-28T14:05:30;28.70;;;10.70;;
35675;SDS011;21790;42.668;23.298;2023-02-28T14:07:59;24.50;;;10.63;;
35675;SDS011;21790;42.668;23.298;2023-02-28T14:10:47;25.17;;;10.85;;
35675;SDS011;21790;42.668;23.298;2023-02-28T14:16:16;31.20;;;11.75;;
35675;SDS011;21790;42.668;23.298;2023-02-28T14:18:50;25.13;;;10.43;;
35675;SDS011;21790;42.668;23.298;2023-02-28T14:21:32;28.48;;;13.50;;
35675;SDS011;21790;42.668;23.298;2023-02-28T14:55:18;36.75;;;12.77;;
35675;SDS011;21790;42.668;23.298;2023-02-28T15:01:10;27.65;;;10.63;;
35675;SDS011;21790;42.668;23.298;2023-02-28T15:34:06;23.70;;;10.02;;
35675;SDS011;21790;42.668;23.298;2023-02-28T15:39:54;35.00;;;10.93;;
35675;SDS011;21790;42.668;23.298;2023-02-28T15:42:38;23.40;;;9.75;;
35675;SDS011;21790;42.668;23.298;2023-02-28T15:57:28;24.75;;;10.07;;
35675;SDS011;21790;42.668;23.298;2023-02-28T16:09:56;26.20;;;8.55;;
35675;SDS011;21790;42.668;23.298;2023-02-28T16:22:33;17.73;;;8.82;;
35675;SDS011;21790;42.668;23.298;2023-02-28T16:28:32;15.05;;;8.85;;
35675;SDS011;21790;42.668;23.298;2023-02-28T16:31:42;17.08;;;9.30;;
35675;SDS011;21790;42.668;23.298;2023-02-28T17:02:38;11.52;;;6.88;;
35675;SDS011;21790;42.668;23.298;2023-02-28T17:15:11;13.75;;;6.13;;
35675;SDS011;21790;42.668;23.298;2023-02-28T17:27:43;13.45;;;6.70;;
35675;SDS011;21790;42.668;23.298;2023-02-28T18:00:12;12.98;;;5.38;;
35675;SDS011;21790;42.668;23.298;2023-02-28T18:06:23;10.50;;;6.05;;
35675;SDS011;21790;42.668;23.298;2023-02-28T18:16:16;8.68;;;5.70;;
35675;SDS011;21790;42.668;23.298;2023-02-28T18:45:51;7.65;;;5.43;;
35675;SDS011;21790;42.668;23.298;2023-02-28T19:00:03;13.23;;;8.75;;
35675;SDS011;21790;42.668;23.298;2023-02-28T19:02:30;9.93;;;6.00;;
35675;SDS011;21790;42.668;23.298;2023-02-28T19:08:28;11.00;;;6.55;;
35675;SDS011;21790;42.668;23.298;2023-02-28T19:14:30;10.73;;;6.95;;
35675;SDS011;21790;42.668;23.298;2023-02-28T19:20:31;9.05;;;6.07;;
35675;SDS011;21790;42.668;23.298;2023-02-28T19:23:00;11.32;;;6.47;;
35675;SDS011;21790;42.668;23.298;2023-02-28T19:41:26;9.65;;;6.05;;
35675;SDS011;21790;42.668;23.298;2023-02-28T19:47:15;8.65;;;6.05;;
35675;SDS011;21790;42.668;23.298;2023-02-28T20:02:31;10.15;;;6.95;;
35675;SDS011;21790;42.668;23.298;2023-02-28T20:14:21;13.55;;;7.72;;
35675;SDS011;21790;42.668;23.298;2023-02-28T20:16:50;11.20;;;7.93;;
35675;SDS011;21790;42.668;23.298;2023-02-28T21:02:19;12.45;;;7.75;;
35675;SDS011;21790;42.668;23.298;2023-02-28T21:04:47;12.07;;;7.03;;
35675;SDS011;21790;42.668;23.298;2023-02-28T21:10:34;8.95;;;5.82;;
35675;SDS011;21790;42.668;23.298;2023-02-28T21:43:01;7.70;;;5.18;;
35675;SDS011;21790;42.668;23.298;2023-02-28T21:51:41;5.82;;;4.32;;
